createdAt,value
2018-04-19T00:01:27.836Z,6.33
2018-04-19T00:03:55.403Z,6.37
2018-04-19T00:06:23.754Z,8.17
2018-04-19T00:08:51.389Z,8.10
2018-04-19T00:11:18.932Z,8.30
2018-04-19T00:13:47.276Z,6.63
2018-04-19T00:16:14.913Z,7.23
2018-04-19T00:18:42.521Z,6.00
2018-04-19T00:21:10.850Z,6.40
2018-04-19T00:23:38.453Z,6.97
2018-04-19T00:26:06.060Z,7.20
2018-04-19T00:28:34.360Z,7.27
2018-04-19T00:31:01.991Z,8.40
2018-04-19T00:33:29.560Z,8.67
2018-04-19T00:35:57.147Z,6.97
2018-04-19T00:38:24.719Z,6.13
2018-04-19T00:40:52.311Z,6.67
2018-04-19T00:43:19.861Z,8.00
2018-04-19T00:45:47.434Z,7.00
2018-04-19T00:48:15.049Z,7.27
2018-04-19T00:50:42.615Z,6.27
2018-04-19T00:53:10.233Z,7.80
2018-04-19T00:55:37.796Z,6.80
2018-04-19T00:58:05.362Z,6.00
2018-04-19T01:00:32.959Z,8.10
2018-04-19T01:03:00.524Z,8.00
2018-04-19T01:05:28.084Z,7.43
2018-04-19T01:07:55.701Z,5.93
2018-04-19T01:10:23.297Z,8.83
2018-04-19T01:12:50.915Z,8.03
2018-04-19T01:15:18.516Z,5.73
2018-04-19T01:17:46.073Z,7.50
2018-04-19T01:20:13.620Z,8.53
2018-04-19T01:22:41.186Z,6.57
2018-04-19T01:25:08.740Z,9.17
2018-04-19T01:27:36.308Z,8.43
2018-04-19T01:30:03.861Z,7.57
2018-04-19T01:32:31.451Z,7.77
2018-04-19T01:34:59.028Z,7.77
2018-04-19T01:37:27.420Z,8.50
2018-04-19T01:39:55.743Z,7.77
2018-04-19T01:42:23.299Z,8.10
2018-04-19T01:44:50.854Z,10.37
2018-04-19T01:47:18.396Z,10.90
2018-04-19T01:49:45.956Z,10.20
2018-04-19T01:52:13.516Z,9.23
2018-04-19T01:54:41.100Z,8.80
2018-04-19T01:57:08.732Z,9.03
2018-04-19T01:59:36.319Z,10.13
2018-04-19T02:02:03.884Z,10.57
2018-04-19T02:04:31.519Z,7.13
2018-04-19T02:06:59.086Z,8.77
2018-04-19T02:09:26.712Z,9.53
2018-04-19T02:11:55.028Z,8.90
2018-04-19T02:14:22.619Z,8.23
2018-04-19T02:16:50.158Z,6.50
2018-04-19T02:19:17.733Z,8.93
2018-04-19T02:21:45.280Z,10.40
2018-04-19T02:24:12.844Z,12.37
2018-04-19T02:26:40.445Z,9.80
2018-04-19T02:29:08.762Z,8.43
2018-04-19T02:31:36.344Z,8.53
2018-04-19T02:34:03.898Z,9.20
2018-04-19T02:36:31.632Z,13.43
2018-04-19T02:38:59.192Z,11.60
2018-04-19T02:41:27.546Z,11.70
2018-04-19T02:43:55.088Z,7.63
2018-04-19T02:46:23.438Z,7.10
2018-04-19T02:48:50.981Z,8.17
2018-04-19T02:51:18.516Z,14.07
2018-04-19T02:53:46.084Z,8.07
2018-04-19T02:56:14.175Z,7.67
2018-04-19T02:58:41.900Z,6.47
2018-04-19T03:01:09.513Z,9.00
2018-04-19T03:03:37.098Z,9.27
2018-04-19T03:06:04.657Z,5.67
2018-04-19T03:08:32.220Z,8.80
2018-04-19T03:10:59.792Z,9.17
2018-04-19T03:13:28.388Z,8.43
2018-04-19T03:15:56.729Z,10.57
2018-04-19T03:18:24.289Z,9.60
2018-04-19T03:20:51.860Z,7.30
2018-04-19T03:23:19.468Z,10.53
2018-04-19T03:25:47.019Z,9.43
2018-04-19T03:28:14.650Z,9.37
2018-04-19T03:30:42.197Z,10.30
2018-04-19T03:33:09.845Z,6.93
2018-04-19T03:35:37.392Z,9.33
2018-04-19T03:38:04.970Z,7.50
2018-04-19T03:40:32.516Z,9.77
2018-04-19T03:43:00.093Z,8.30
2018-04-19T03:45:27.656Z,10.17
2018-04-19T03:47:55.209Z,8.97
2018-04-19T03:50:22.792Z,8.93
2018-04-19T03:52:50.350Z,9.80
2018-04-19T03:55:17.999Z,7.70
2018-04-19T03:57:45.571Z,9.77
2018-04-19T04:00:13.224Z,10.53
2018-04-19T04:02:40.817Z,9.47
2018-04-19T04:05:09.159Z,8.80
2018-04-19T04:07:36.710Z,9.13
2018-04-19T04:10:04.313Z,8.27
2018-04-19T04:12:32.627Z,9.77
2018-04-19T04:15:00.227Z,8.10
2018-04-19T04:17:39.692Z,8.60
2018-04-19T04:23:22.535Z,10.47
2018-04-19T04:25:50.873Z,8.37
2018-04-19T04:28:18.438Z,9.60
2018-04-19T04:30:46.016Z,9.13
2018-04-19T04:33:14.376Z,9.20
2018-04-19T04:35:42.039Z,6.57
2018-04-19T04:38:09.619Z,9.00
2018-04-19T04:40:37.219Z,7.47
2018-04-19T04:43:04.794Z,11.20
2018-04-19T04:45:32.350Z,9.73
2018-04-19T04:48:00.049Z,10.03
2018-04-19T04:50:27.608Z,12.97
2018-04-19T04:52:55.258Z,13.50
2018-04-19T04:55:22.820Z,10.27
2018-04-19T04:57:50.407Z,9.93
2018-04-19T05:00:18.725Z,9.43
2018-04-19T05:02:46.295Z,8.70
2018-04-19T05:05:13.846Z,7.83
2018-04-19T05:07:41.415Z,10.03
2018-04-19T05:10:08.965Z,7.10
2018-04-19T05:12:36.532Z,9.53
2018-04-19T05:15:04.099Z,9.53
2018-04-19T05:17:31.678Z,10.00
2018-04-19T05:19:59.263Z,13.87
2018-04-19T05:22:26.832Z,13.90
2018-04-19T05:24:55.145Z,14.13
2018-04-19T05:27:22.719Z,11.73
2018-04-19T05:29:50.343Z,11.77
2018-04-19T05:32:17.923Z,11.23
2018-04-19T05:34:45.508Z,20.23
2018-04-19T05:37:13.157Z,15.67
2018-04-19T05:39:40.746Z,12.93
2018-04-19T05:42:08.311Z,42.37
2018-04-19T05:44:35.903Z,22.27
2018-04-19T05:47:04.216Z,21.90
2018-04-19T05:49:31.798Z,18.97
2018-04-19T05:51:59.380Z,16.47
2018-04-19T05:54:26.965Z,13.13
2018-04-19T05:56:54.527Z,13.60
2018-04-19T05:59:22.100Z,13.50
2018-04-19T06:01:49.809Z,14.20
2018-04-19T06:04:17.368Z,9.30
2018-04-19T06:06:45.701Z,9.23
2018-04-19T06:09:13.279Z,7.87
2018-04-19T06:11:40.888Z,7.43
2018-04-19T06:14:09.186Z,9.17
2018-04-19T06:16:36.781Z,20.70
2018-04-19T06:19:04.352Z,11.50
2018-04-19T06:21:31.930Z,10.77
2018-04-19T06:23:59.528Z,19.83
2018-04-19T06:26:27.120Z,35.27
2018-04-19T06:28:54.664Z,13.47
2018-04-19T06:31:22.228Z,10.10
2018-04-19T06:33:49.791Z,8.27
2018-04-19T06:36:17.434Z,8.77
2018-04-19T06:38:45.000Z,9.53
2018-04-19T06:41:12.617Z,9.80
2018-04-19T06:43:40.176Z,8.60
2018-04-19T06:46:07.764Z,7.60
2018-04-19T06:48:36.084Z,8.23
2018-04-19T06:51:03.668Z,7.37
2018-04-19T06:53:31.245Z,6.80
2018-04-19T06:55:59.664Z,7.13
2018-04-19T06:58:27.239Z,5.40
2018-04-19T07:00:54.788Z,4.83
2018-04-19T07:03:22.347Z,8.33
2018-04-19T07:05:49.915Z,4.80
2018-04-19T07:08:17.454Z,6.50
2018-04-19T07:10:45.008Z,7.70
2018-04-19T07:13:12.695Z,6.47
2018-04-19T07:15:40.244Z,5.60
2018-04-19T07:18:07.789Z,6.93
2018-04-19T07:20:35.347Z,5.83
2018-04-19T07:23:02.904Z,5.77
2018-04-19T07:25:31.252Z,5.80
2018-04-19T07:27:58.811Z,4.70
2018-04-19T07:30:26.400Z,5.57
2018-04-19T07:32:54.801Z,5.87
2018-04-19T07:35:22.368Z,5.43
2018-04-19T07:37:49.976Z,5.57
2018-04-19T07:40:17.568Z,4.87
2018-04-19T07:42:45.109Z,4.83
2018-04-19T07:45:13.443Z,7.53
2018-04-19T07:47:41.091Z,4.70
2018-04-19T07:50:08.676Z,8.30
2018-04-19T07:52:36.223Z,6.00
2018-04-19T07:55:03.784Z,5.43
2018-04-19T07:57:31.421Z,4.53
2018-04-19T07:59:58.976Z,4.87
2018-04-19T08:02:26.556Z,5.30
2018-04-19T08:04:54.095Z,4.30
2018-04-19T08:07:21.661Z,4.87
2018-04-19T08:09:49.228Z,5.20
2018-04-19T08:12:16.929Z,6.23
2018-04-19T08:14:44.495Z,5.33
2018-04-19T08:17:12.060Z,5.47
2018-04-19T08:19:39.644Z,4.20
2018-04-19T08:22:07.944Z,4.70
2018-04-19T08:24:35.557Z,5.27
2018-04-19T08:27:03.068Z,4.17
2018-04-19T08:29:30.612Z,3.50
2018-04-19T08:31:58.162Z,6.03
2018-04-19T08:34:26.500Z,5.80
2018-04-19T08:36:54.134Z,6.40
2018-04-19T08:39:21.692Z,5.97
2018-04-19T08:41:49.279Z,3.90
2018-04-19T08:44:16.841Z,5.70
2018-04-19T08:46:44.382Z,4.30
2018-04-19T08:49:11.953Z,6.30
2018-04-19T08:51:40.436Z,5.33
2018-04-19T08:54:09.930Z,3.83
2018-04-19T08:56:37.467Z,4.93
2018-04-19T08:59:05.054Z,6.50
2018-04-19T09:01:32.615Z,6.10
2018-04-19T09:04:00.171Z,5.37
2018-04-19T09:06:27.924Z,5.20
2018-04-19T09:08:55.470Z,5.90
2018-04-19T09:11:23.042Z,5.53
2018-04-19T09:13:50.620Z,5.80
2018-04-19T09:16:18.179Z,6.17
2018-04-19T09:18:45.779Z,5.10
2018-04-19T09:21:14.116Z,7.40
2018-04-19T09:23:42.071Z,5.33
2018-04-19T09:26:09.613Z,6.00
2018-04-19T09:28:37.192Z,6.83
2018-04-19T09:31:04.781Z,6.30
2018-04-19T09:33:32.352Z,5.27
2018-04-19T09:35:59.911Z,7.90
2018-04-19T09:38:28.229Z,7.83
2018-04-19T09:40:55.862Z,8.17
2018-04-19T09:43:23.366Z,6.07
2018-04-19T09:45:50.943Z,6.50
2018-04-19T09:48:18.524Z,6.57
2018-04-19T09:50:46.085Z,7.07
2018-04-19T09:53:13.654Z,5.67
2018-04-19T09:55:41.221Z,5.53
2018-04-19T09:58:09.546Z,4.97
2018-04-19T10:00:42.684Z,4.13
2018-04-19T10:03:15.910Z,9.53
2018-04-19T10:05:48.439Z,4.47
2018-04-19T10:08:16.043Z,6.17
2018-04-19T10:10:43.604Z,5.17
2018-04-19T10:13:11.199Z,5.23
2018-04-19T10:15:38.750Z,5.63
2018-04-19T10:18:06.404Z,6.30
2018-04-19T10:20:34.083Z,6.90
2018-04-19T10:23:01.651Z,7.10
2018-04-19T10:25:29.311Z,4.23
2018-04-19T10:27:56.913Z,4.77
2018-04-19T10:30:25.223Z,3.53
2018-04-19T10:32:52.806Z,3.80
2018-04-19T10:35:20.357Z,3.70
2018-04-19T10:37:47.912Z,4.45
2018-04-19T10:40:15.480Z,7.67
2018-04-19T10:42:43.059Z,5.63
2018-04-19T10:45:10.603Z,4.90
2018-04-19T10:47:38.172Z,5.67
2018-04-19T10:50:05.729Z,4.00
2018-04-19T10:52:33.311Z,5.05
2018-04-19T10:55:00.858Z,3.97
2018-04-19T10:57:28.483Z,7.57
2018-04-19T10:59:56.060Z,5.22
2018-04-19T11:02:23.624Z,3.67
2018-04-19T11:04:51.212Z,3.72
2018-04-19T11:07:18.759Z,3.70
2018-04-19T11:09:46.319Z,6.10
2018-04-19T11:12:13.891Z,4.77
2018-04-19T11:14:41.476Z,4.17
2018-04-19T11:17:09.794Z,7.53
2018-04-19T11:19:37.486Z,4.67
2018-04-19T11:22:05.053Z,5.97
2018-04-19T11:24:32.712Z,6.87
2018-04-19T11:27:00.307Z,4.05
2018-04-19T11:29:27.909Z,5.67
2018-04-19T11:31:55.511Z,4.53
2018-04-19T11:34:23.832Z,7.20
2018-04-19T11:36:51.376Z,4.70
2018-04-19T11:39:19.055Z,5.73
2018-04-19T11:41:46.609Z,6.35
2018-04-19T11:44:14.192Z,5.33
2018-04-19T11:46:41.766Z,3.27
2018-04-19T11:49:09.336Z,3.83
2018-04-19T11:51:36.883Z,4.07
2018-04-19T11:54:04.455Z,7.00
2018-04-19T11:56:32.012Z,4.80
2018-04-19T11:58:59.564Z,10.50
2018-04-19T12:01:27.236Z,5.97
2018-04-19T12:03:54.803Z,4.10
2018-04-19T12:06:22.377Z,5.05
2018-04-19T12:08:49.917Z,6.90
2018-04-19T12:11:17.511Z,4.90
2018-04-19T12:13:45.832Z,9.03
2018-04-19T12:16:13.411Z,3.55
2018-04-19T12:18:40.980Z,5.53
2018-04-19T12:21:08.549Z,7.35
2018-04-19T12:23:36.885Z,6.68
2018-04-19T12:26:04.564Z,6.28
2018-04-19T12:28:32.145Z,7.28
2018-04-19T12:31:00.648Z,5.03
2018-04-19T12:33:28.975Z,3.72
2018-04-19T12:35:57.557Z,4.78
2018-04-19T12:38:25.111Z,6.75
2018-04-19T12:40:52.875Z,4.05
2018-04-19T12:43:20.603Z,3.95
2018-04-19T12:45:48.181Z,5.45
2018-04-19T12:48:15.953Z,4.95
2018-04-19T12:50:43.535Z,4.05
2018-04-19T12:53:11.147Z,5.27
2018-04-19T12:55:39.473Z,6.03
2018-04-19T12:58:07.687Z,4.30
2018-04-19T13:00:36.008Z,3.90
2018-04-19T13:03:03.576Z,5.20
2018-04-19T13:05:31.133Z,4.93
2018-04-19T13:07:58.701Z,4.60
2018-04-19T13:10:26.273Z,5.25
2018-04-19T13:12:53.874Z,5.95
2018-04-19T13:15:21.412Z,4.47
2018-04-19T13:17:48.972Z,4.25
2018-04-19T13:20:16.552Z,4.07
2018-04-19T13:22:44.869Z,4.32
2018-04-19T13:25:12.455Z,4.03
2018-04-19T13:27:40.010Z,3.65
2018-04-19T13:30:07.738Z,5.20
2018-04-19T13:32:35.401Z,7.00
2018-04-19T13:35:02.943Z,7.37
2018-04-19T13:37:31.311Z,4.70
2018-04-19T13:39:59.624Z,3.47
2018-04-19T13:42:27.215Z,4.55
2018-04-19T13:44:54.883Z,7.35
2018-04-19T13:47:22.459Z,8.45
2018-04-19T13:49:49.999Z,4.60
2018-04-19T13:52:17.624Z,4.72
2018-04-19T13:54:45.199Z,3.08
2018-04-19T13:57:13.544Z,5.85
2018-04-19T13:59:41.116Z,4.72
2018-04-19T14:02:08.717Z,3.72
2018-04-19T14:04:36.235Z,3.97
2018-04-19T14:07:03.819Z,5.50
2018-04-19T14:09:31.384Z,7.00
2018-04-19T14:11:59.026Z,4.05
2018-04-19T14:14:26.603Z,5.07
2018-04-19T14:16:54.151Z,4.80
2018-04-19T14:19:21.748Z,4.85
2018-04-19T14:21:49.315Z,3.58
2018-04-19T14:24:16.872Z,5.62
2018-04-19T14:26:45.968Z,4.12
2018-04-19T14:29:15.057Z,3.80
2018-04-19T14:31:42.679Z,3.97
2018-04-19T14:34:10.244Z,4.12
2018-04-19T14:36:37.819Z,6.20
2018-04-19T14:39:06.267Z,4.10
2018-04-19T14:41:33.824Z,4.35
2018-04-19T14:44:02.212Z,4.75
2018-04-19T14:46:29.770Z,6.25
2018-04-19T14:48:57.423Z,3.57
2018-04-19T14:51:24.991Z,4.95
2018-04-19T14:53:52.563Z,8.35
2018-04-19T14:56:20.316Z,4.35
2018-04-19T14:58:48.012Z,6.28
2018-04-19T15:01:15.650Z,4.60
2018-04-19T15:03:43.258Z,4.85
2018-04-19T15:06:10.823Z,3.70
2018-04-19T15:08:38.397Z,4.47
2018-04-19T15:11:06.724Z,6.87
2018-04-19T15:13:34.318Z,4.85
2018-04-19T15:16:01.888Z,3.40
2018-04-19T15:21:03.352Z,4.97
2018-04-19T15:23:30.900Z,3.87
2018-04-19T15:25:58.472Z,6.35
2018-04-19T15:28:26.066Z,4.68
2018-04-19T15:30:54.768Z,5.37
2018-04-19T15:33:22.547Z,4.32
2018-04-19T15:35:50.170Z,4.55
2018-04-19T15:38:19.113Z,5.80
2018-04-19T15:40:47.099Z,10.07
2018-04-19T15:43:15.028Z,9.57
2018-04-19T15:45:42.993Z,5.28
2018-04-19T15:48:10.788Z,4.22
2018-04-19T15:50:38.769Z,5.78
2018-04-19T15:53:06.701Z,5.82
2018-04-19T15:55:34.587Z,3.90
2018-04-19T15:58:02.396Z,4.68
2018-04-19T16:00:29.946Z,4.80
2018-04-19T16:02:58.245Z,6.47
2018-04-19T16:05:25.783Z,5.95
2018-04-19T16:07:54.081Z,6.37
2018-04-19T16:10:21.633Z,8.75
2018-04-19T16:12:49.925Z,6.47
2018-04-19T16:15:17.498Z,5.45
2018-04-19T16:17:45.012Z,4.62
2018-04-19T16:20:13.302Z,4.65
2018-04-19T16:22:41.690Z,4.40
2018-04-19T16:25:09.317Z,6.28
2018-04-19T16:27:36.908Z,4.62
2018-04-19T16:30:05.229Z,5.20
2018-04-19T16:32:32.814Z,4.55
2018-04-19T16:35:00.378Z,3.47
2018-04-19T16:37:27.944Z,8.13
2018-04-19T16:39:55.589Z,22.48
2018-04-19T16:42:23.247Z,9.32
2018-04-19T16:44:50.786Z,4.87
2018-04-19T16:47:18.515Z,5.30
2018-04-19T16:49:46.128Z,5.60
2018-04-19T16:52:13.665Z,5.97
2018-04-19T16:54:41.196Z,6.70
2018-04-19T16:57:09.504Z,6.22
2018-04-19T16:59:37.066Z,3.20
2018-04-19T17:02:04.589Z,9.15
2018-04-19T17:04:32.884Z,5.53
2018-04-19T17:07:00.440Z,4.80
2018-04-19T17:09:27.966Z,5.30
2018-04-19T17:11:55.490Z,5.00
2018-04-19T17:14:23.086Z,4.93
2018-04-19T17:16:51.412Z,4.25
2018-04-19T17:19:19.119Z,4.75
2018-04-19T17:21:46.643Z,5.97
2018-04-19T17:24:14.216Z,9.43
2018-04-19T17:26:41.811Z,5.53
2018-04-19T17:29:09.475Z,4.70
2018-04-19T17:31:37.857Z,14.32
2018-04-19T17:34:05.476Z,9.07
2018-04-19T17:36:33.015Z,7.57
2018-04-19T17:39:00.584Z,7.37
2018-04-19T17:41:28.110Z,7.53
2018-04-19T17:43:55.654Z,5.83
2018-04-19T17:46:23.190Z,9.70
2018-04-19T17:48:50.733Z,5.63
2018-04-19T17:51:18.288Z,6.17
2018-04-19T17:53:45.903Z,7.00
2018-04-19T17:56:13.394Z,7.97
2018-04-19T17:58:40.984Z,6.30
2018-04-19T18:01:08.537Z,6.40
2018-04-19T18:03:36.056Z,4.43
2018-04-19T18:06:03.609Z,7.47
2018-04-19T18:08:31.137Z,5.80
2018-04-19T18:10:58.715Z,5.87
2018-04-19T18:13:27.115Z,5.77
2018-04-19T18:15:55.455Z,6.77
2018-04-19T18:18:23.058Z,6.13
2018-04-19T18:20:50.634Z,7.10
2018-04-19T18:23:18.212Z,5.00
2018-04-19T18:25:45.947Z,6.83
2018-04-19T18:28:13.531Z,6.07
2018-04-19T18:30:41.077Z,12.80
2018-04-19T18:33:08.772Z,7.83
2018-04-19T18:35:36.322Z,7.40
2018-04-19T18:38:03.963Z,8.73
2018-04-19T18:40:31.521Z,11.53
2018-04-19T18:42:59.338Z,10.50
2018-04-19T18:45:27.657Z,12.67
2018-04-19T18:47:55.572Z,11.77
2018-04-19T18:50:23.116Z,12.53
2018-04-19T18:52:50.679Z,11.37
2018-04-19T18:55:18.259Z,14.87
2018-04-19T18:57:45.852Z,14.57
2018-04-19T19:00:14.175Z,14.83
2018-04-19T19:02:41.765Z,21.53
2018-04-19T19:05:09.450Z,47.43
2018-04-19T19:07:37.792Z,18.50
2018-04-19T19:10:05.394Z,16.60
2018-04-19T19:12:33.741Z,17.70
2018-04-19T19:15:01.328Z,16.20
2018-04-19T19:17:41.561Z,13.60
2018-04-19T19:20:10.763Z,15.67
2018-04-19T19:22:39.220Z,14.27
2018-04-19T19:25:06.810Z,13.50
2018-04-19T19:27:34.402Z,17.70
2018-04-19T19:30:01.972Z,15.73
2018-04-19T19:32:29.546Z,12.50
2018-04-19T19:34:57.114Z,9.87
2018-04-19T19:37:24.680Z,11.47
2018-04-19T19:39:52.300Z,9.83
2018-04-19T19:42:19.808Z,9.87
2018-04-19T19:44:47.376Z,7.57
2018-04-19T19:47:14.932Z,6.63
2018-04-19T19:49:42.556Z,9.27
2018-04-19T19:52:10.208Z,7.07
2018-04-19T19:54:37.740Z,8.53
2018-04-19T19:57:05.337Z,10.00
2018-04-19T19:59:32.922Z,8.63
2018-04-19T20:02:00.503Z,5.57
2018-04-19T20:04:29.033Z,9.33
2018-04-19T20:06:56.605Z,7.13
2018-04-19T20:09:24.214Z,7.83
2018-04-19T20:11:51.778Z,7.83
2018-04-19T20:14:19.343Z,9.53
2018-04-19T20:16:46.901Z,8.00
2018-04-19T20:19:14.668Z,7.23
2018-04-19T20:21:42.257Z,7.80
2018-04-19T20:24:09.815Z,5.63
2018-04-19T20:26:38.139Z,7.13
2018-04-19T20:29:05.714Z,8.00
2018-04-19T20:31:33.360Z,7.40
2018-04-19T20:34:00.927Z,6.17
2018-04-19T20:36:28.499Z,6.57
2018-04-19T20:38:56.101Z,8.13
2018-04-19T20:41:23.983Z,8.33
2018-04-19T20:43:51.576Z,7.10
2018-04-19T20:46:19.885Z,8.00
2018-04-19T20:48:48.947Z,8.17
2018-04-19T20:51:16.511Z,7.83
2018-04-19T20:53:44.127Z,7.13
2018-04-19T20:56:11.684Z,5.00
2018-04-19T20:58:39.259Z,6.80
2018-04-19T21:01:06.816Z,6.60
2018-04-19T21:03:34.405Z,7.53
2018-04-19T21:06:01.952Z,5.87
2018-04-19T21:08:29.693Z,5.73
2018-04-19T21:10:57.266Z,6.63
2018-04-19T21:13:24.824Z,6.07
2018-04-19T21:15:52.399Z,5.30
2018-04-19T21:18:19.991Z,5.90
2018-04-19T21:20:47.581Z,6.77
2018-04-19T21:23:15.112Z,11.87
2018-04-19T21:25:42.664Z,7.20
2018-04-19T21:28:10.227Z,6.17
2018-04-19T21:30:37.831Z,6.37
2018-04-19T21:33:05.393Z,5.70
2018-04-19T21:35:32.960Z,5.73
2018-04-19T21:38:00.503Z,7.37
2018-04-19T21:40:28.063Z,6.07
2018-04-19T21:42:55.633Z,8.03
2018-04-19T21:45:23.199Z,8.50
2018-04-19T21:47:50.768Z,8.33
2018-04-19T21:50:18.528Z,8.07
2018-04-19T21:52:46.125Z,5.20
2018-04-19T21:55:13.675Z,6.47
2018-04-19T21:57:41.239Z,5.63
2018-04-19T22:00:08.787Z,6.67
2018-04-19T22:02:36.345Z,6.97
2018-04-19T22:05:03.900Z,5.67
2018-04-19T22:07:31.468Z,6.80
2018-04-19T22:09:59.077Z,9.87
2018-04-19T22:12:27.415Z,7.40
2018-04-19T22:14:55.040Z,7.73
2018-04-19T22:17:22.600Z,6.43
2018-04-19T22:19:50.163Z,6.93
2018-04-19T22:22:17.823Z,5.43
2018-04-19T22:24:45.391Z,6.37
2018-04-19T22:27:13.867Z,7.17
2018-04-19T22:29:41.435Z,6.07
2018-04-19T22:32:09.394Z,5.37
2018-04-19T22:34:36.943Z,5.77
2018-04-19T22:37:04.501Z,7.53
2018-04-19T22:39:32.117Z,5.47
2018-04-19T22:41:59.712Z,6.67
2018-04-19T22:44:28.025Z,4.90
2018-04-19T22:46:55.619Z,6.77
2018-04-19T22:49:23.187Z,5.97
2018-04-19T22:51:50.747Z,6.43
2018-04-19T22:54:18.330Z,7.33
2018-04-19T22:56:46.645Z,5.43
2018-04-19T22:59:14.255Z,4.80
2018-04-19T23:01:42.603Z,5.90
2018-04-19T23:04:10.240Z,7.77
2018-04-19T23:06:37.892Z,4.30
2018-04-19T23:09:06.402Z,5.73
2018-04-19T23:11:33.976Z,6.37
2018-04-19T23:14:01.527Z,6.07
2018-04-19T23:16:29.104Z,5.57
2018-04-19T23:18:56.707Z,8.07
2018-04-19T23:21:24.509Z,5.10
2018-04-19T23:23:52.048Z,6.37
2018-04-19T23:26:20.529Z,5.47
2018-04-19T23:28:48.091Z,7.77
2018-04-19T23:31:15.667Z,6.23
2018-04-19T23:33:43.216Z,6.43
2018-04-19T23:36:10.769Z,6.77
2018-04-19T23:38:38.323Z,7.10
2018-04-19T23:41:05.889Z,8.73
2018-04-19T23:43:33.467Z,8.17
2018-04-19T23:46:01.129Z,8.57
2018-04-19T23:48:28.711Z,7.77
2018-04-19T23:50:56.308Z,7.13
2018-04-19T23:53:24.798Z,7.03
2018-04-19T23:55:52.507Z,6.93
2018-04-19T23:58:20.143Z,6.53
